Time;durP1;ratioP1;P1;durP2;ratioP2;P2;SDS_P1;SDS_P2;PMS_P1;PMS_P2;Temp;Humidity;BMP_temperature;BMP_pressure;BME280_temperature;BME280_humidity;BME280_pressure;Samples;Min_cycle;Max_cycle;Signal;HPM_P1;HPM_P2
2023/12/24 00:00:51;;;;;;;3.60;1.50;;;;;;;2.28;83.23;99036.16;127165;1286;127865;-70
2023/12/24 00:08:35;;;;;;;;;;;;;;;;;;;;;
2023/12/24 00:11:37;;;;;;;;;;;;;;;2.22;83.34;99052.23;128228;1279;115343;-71
2023/12/24 00:15:30;;;;;;;3.30;0.90;;;;;;;2.19;83.29;99053.41;128569;1273;115211;-69
2023/12/24 00:19:03;;;;;;;2.40;0.80;;;;;;;2.17;83.60;99064.22;128635;1279;127983;-69
2023/12/24 00:22:56;;;;;;;2.40;0.90;;;;;;;2.16;83.50;99067.05;128734;1274;114929;-69
2023/12/24 00:26:48;;;;;;;3.30;0.90;;;;;;;2.14;83.57;99079.12;127706;1295;115003;-71
2023/12/24 00:30:49;;;;;;;2.30;0.90;;;;;;;2.11;83.76;99081.69;127543;1298;115016;-70
2023/12/24 00:34:50;;;;;;;3.50;1.10;;;;;;;2.10;83.86;99089.14;127040;1292;114932;-69
2023/12/24 00:38:52;;;;;;;3.70;1.50;;;;;;;2.06;83.70;99092.79;126623;1286;127924;-68
2023/12/24 00:42:53;;;;;;;1.40;0.90;;;;;;;2.06;83.72;99094.70;126197;1297;114904;-69
2023/12/24 00:46:55;;;;;;;;;;;;;;;;;;;;;
2023/12/24 00:59:27;;;;;;;2.80;1.10;;;;;;;1.94;83.64;99120.11;127659;1303;128787;-69
2023/12/24 01:03:20;;;;;;;2.20;0.80;;;;;;;1.94;83.86;99120.64;127889;1282;114894;-70
2023/12/24 01:07:03;;;;;;;2.60;1.20;;;;;;;1.91;83.74;99122.50;125227;1287;3110385;-70
2023/12/24 01:10:17;;;;;;;1.70;0.70;;;;;;;1.89;83.73;99124.52;127206;1303;114765;-71
2023/12/24 01:14:20;;;;;;;3.70;1.20;;;;;;;1.89;84.10;99131.02;127898;1287;114860;-71
2023/12/24 01:18:22;;;;;;;1.80;1.30;;;;;;;1.85;83.83;99135.55;125969;1298;128815;-71
2023/12/24 01:21:54;;;;;;;;;;;;;;;;;;;;;
2023/12/24 01:25:57;;;;;;;2.10;0.90;;;;;;;1.84;83.96;99145.09;126056;1301;114862;-73
2023/12/24 01:29:21;;;;;;;1.60;1.20;;;;;;;1.83;84.01;99148.48;124594;1312;116590;-72
2023/12/24 01:32:25;;;;;;;2.90;1.60;;;;;;;1.84;84.34;99146.34;124715;1331;115008;-71
2023/12/24 01:36:28;;;;;;;3.60;1.50;;;;;;;1.82;84.20;99148.30;124745;1301;129210;-72
2023/12/24 01:40:03;;;;;;;2.20;1.30;;;;;;;1.81;84.17;99147.10;124227;1311;114895;-70
2023/12/24 01:44:05;;;;;;;2.60;2.20;;;;;;;1.79;84.23;99149.98;124088;1319;114983;-73
2023/12/24 01:52:37;;;;;;;2.30;1.10;;;;;;;1.83;84.39;99156.38;125801;1293;637703;-70
2023/12/24 01:56:40;;;;;;;4.60;1.60;;;;;;;1.84;84.64;99151.61;128524;1290;129035;-68
2023/12/24 02:04:45;;;;;;;1.80;1.20;;;;;;;1.86;84.32;99141.52;122391;1312;5424647;-68
2023/12/24 02:08:39;;;;;;;2.70;1.70;;;;;;;1.85;84.49;99145.61;125450;1298;114805;-69
2023/12/24 02:12:41;;;;;;;1.10;0.60;;;;;;;1.84;84.40;99146.33;125341;1301;114917;-68
2023/12/24 02:16:43;;;;;;;1.80;0.90;;;;;;;1.85;84.77;99149.84;125462;1304;114857;-68
2023/12/24 02:20:44;;;;;;;1.80;0.70;;;;;;;1.81;84.30;99145.73;124679;1328;129624;-68
2023/12/24 02:33:19;;;;;;;2.20;1.20;;;;;;;1.81;84.96;99141.87;128076;1280;128910;-68
2023/12/24 02:37:15;;;;;;;2.80;1.20;;;;;;;1.80;84.63;99143.13;127658;1286;114875;-68
2023/12/24 02:41:18;;;;;;;1.80;1.40;;;;;;;1.79;84.85;99142.27;123538;1289;5430196;-68
2023/12/24 02:45:14;;;;;;;;;;;;;;;;;;;;;
2023/12/24 02:49:19;;;;;;;2.80;1.40;;;;;;;1.79;84.93;99133.45;126436;1299;114893;-69
2023/12/24 02:53:02;;;;;;;1.90;0.90;;;;;;;1.79;84.67;99137.69;126287;1298;115111;-70
2023/12/24 02:57:04;;;;;;;2.90;1.30;;;;;;;1.75;84.69;99135.67;125689;1305;129707;-70
2023/12/24 03:05:15;;;;;;;3.90;2.00;;;;;;;1.73;85.00;99127.13;126238;1295;636106;-69
2023/12/24 03:09:10;;;;;;;4.10;1.60;;;;;;;1.74;85.18;99134.70;129085;1289;127712;-69
2023/12/24 03:13:03;;;;;;;;;;;;;;;;;;;;;
2023/12/24 03:21:10;;;;;;;6.20;3.20;;;;;;;1.79;85.10;99135.05;124362;1280;114915;-68
2023/12/24 03:25:06;;;;;;;;;;;;;;;;;;;;;
2023/12/24 03:29:01;;;;;;;;;;;;;;;;;;;;;
2023/12/24 03:33:02;;;;;;;10.80;3.70;;;;;;;1.83;85.39;99130.86;124838;1327;128863;-69
2023/12/24 03:41:38;;;;;;;6.10;2.70;;;;;;;1.88;85.22;99127.36;126310;1304;635976;-69
2023/12/24 03:49:43;;;;;;;6.60;3.10;;;;;;;1.86;85.16;99139.92;127458;1287;114942;-68
2023/12/24 03:53:37;;;;;;;;;;;;;;;;;;;;;
2023/12/24 03:57:39;;;;;;;6.10;3.10;;;;;;;1.85;85.42;99134.15;124612;1324;114911;-69
2023/12/24 04:01:40;;;;;;;9.40;2.70;;;;;;;1.86;85.29;99125.30;124903;1326;114845;-70
2023/12/24 04:05:35;;;;;;;5.10;2.40;;;;;;;1.85;85.23;99134.86;124205;1324;114947;-68
2023/12/24 04:08:50;;;;;;;4.30;2.40;;;;;;;1.85;85.45;99141.19;123541;1336;128832;-68
2023/12/24 04:12:35;;;;;;;;;;;;;;;;;;;;;
2023/12/24 04:15:53;;;;;;;6.20;2.90;;;;;;;1.86;85.53;99151.04;123557;1333;115023;-69
2023/12/24 04:19:26;;;;;;;4.60;2.30;;;;;;;1.86;85.60;99148.91;124093;1329;114947;-69
2023/12/24 04:31:53;;;;;;;8.70;3.50;;;;;;;1.84;85.46;99134.19;128120;1280;128904;-70
2023/12/24 04:35:55;;;;;;;9.10;3.60;;;;;;;1.83;85.15;99138.96;127349;1286;115160;-70
2023/12/24 04:47:53;;;;;;;7.20;2.60;;;;;;;1.81;85.55;99132.16;126045;1299;115080;-69
2023/12/24 04:51:53;;;;;;;3.70;2.10;;;;;;;1.80;85.54;99130.79;125668;1307;129785;-68
2023/12/24 04:55:52;;;;;;;;;;;;;;;;;;;;;
2023/12/24 05:00:26;;;;;;;6.80;3.30;;;;;;;1.81;85.61;99142.02;126136;1299;639560;-69
2023/12/24 05:04:26;;;;;;;;;;;;;;;;;;;;;
2023/12/24 05:08:28;;;;;;;;;;;;;;;;;;;;;
2023/12/24 05:12:46;;;;;;;3.80;2.40;;;;;;;1.76;85.61;99126.35;121701;1310;5423695;-70
2023/12/24 05:25:12;;;;;;;3.50;2.30;;;;;;;1.71;85.54;99122.80;125955;1308;636320;-69
2023/12/24 05:33:17;;;;;;;3.20;2.40;;;;;;;1.66;85.37;99123.14;128027;1284;115216;-69
2023/12/24 05:37:17;;;;;;;;;;;;;;;;;;;;;
2023/12/24 05:45:21;;;;;;;5.20;3.30;;;;;;;1.66;85.66;99118.05;129787;1301;112959;-70
2023/12/24 05:53:47;;;;;;;3.20;2.40;;;;;;;1.70;85.65;99098.36;126108;1302;635703;-71
2023/12/24 05:57:50;;;;;;;2.70;1.80;;;;;;;1.68;85.60;99097.90;128490;1276;128896;-70
2023/12/24 06:05:55;;;;;;;2.90;1.10;;;;;;;1.63;85.55;99093.50;123910;1283;5423980;-70
2023/12/24 06:13:58;;;;;;;2.10;1.40;;;;;;;1.59;85.95;99099.42;125109;1307;116858;-69
2023/12/24 06:22:33;;;;;;;2.40;1.50;;;;;;;1.63;86.03;99099.30;125546;1303;636256;-72
2023/12/24 06:26:36;;;;;;;2.20;1.50;;;;;;;1.60;85.94;99098.70;128193;1300;128818;-73
2023/12/24 06:30:39;;;;;;;3.10;1.80;;;;;;;1.57;85.68;99091.92;127667;1284;114922;-70
2023/12/24 06:34:46;;;;;;;2.40;1.70;;;;;;;1.56;86.05;99093.02;122724;1292;5592815;-67
2023/12/24 06:38:41;;;;;;;3.20;1.50;;;;;;;1.57;86.08;99093.36;126022;1313;114914;-69
2023/12/24 06:46:44;;;;;;;4.10;2.40;;;;;;;1.56;86.28;99090.91;124776;1308;129828;-68
2023/12/24 06:50:38;;;;;;;;;;;;;;;;;;;;;
2023/12/24 06:59:06;;;;;;;;;;;;;;;;;;;;;
2023/12/24 07:03:03;;;;;;;3.20;1.60;;;;;;;1.48;86.29;99098.55;127431;1286;114824;-69
2023/12/24 07:07:06;;;;;;;3.20;1.80;;;;;;;1.45;86.34;99088.27;122883;1300;5547781;-68
2023/12/24 07:11:08;;;;;;;2.20;1.50;;;;;;;1.44;86.46;99080.19;125450;1304;114984;-69
2023/12/24 07:15:09;;;;;;;2.60;1.70;;;;;;;1.45;86.41;99084.94;124626;1313;116616;-69
2023/12/24 07:19:08;;;;;;;;;;;;;;;;;;;;;
2023/12/24 07:27:25;;;;;;;;;;;;;;;;;;;;;
2023/12/24 07:31:29;;;;;;;3.40;1.40;;;;;;;1.52;86.77;99075.02;128373;1279;114934;-69
2023/12/24 07:35:32;;;;;;;4.90;1.80;;;;;;;1.54;86.46;99080.41;122982;1293;5502125;-70
2023/12/24 07:39:36;;;;;;;3.00;1.60;;;;;;;1.57;86.78;99087.36;126309;1292;114836;-71
2023/12/24 07:43:38;;;;;;;2.40;1.30;;;;;;;1.54;86.75;99055.96;125890;1296;115006;-70
2023/12/24 07:47:40;;;;;;;4.10;2.00;;;;;;;1.46;86.57;99052.85;125514;1307;115086;-70
2023/12/24 07:51:41;;;;;;;4.30;2.80;;;;;;;1.43;86.77;99118.60;124632;1307;128852;-70
2023/12/24 08:00:16;;;;;;;2.80;2.10;;;;;;;1.39;86.95;99087.94;126070;1298;639775;-72
2023/12/24 08:08:21;;;;;;;3.00;2.00;;;;;;;1.26;87.27;99087.98;128217;1291;115006;-71
2023/12/24 08:24:54;;;;;;;3.60;2.70;;;;;;;1.42;87.90;99060.23;125853;1300;636017;-67
2023/12/24 08:28:55;;;;;;;3.90;2.30;;;;;;;1.47;87.93;99045.98;127941;1299;128311;-68
2023/12/24 08:32:58;;;;;;;3.20;2.00;;;;;;;1.50;87.88;99045.35;127145;1289;115294;-69
2023/12/24 08:36:50;;;;;;;3.40;1.70;;;;;;;1.53;87.55;99043.86;122641;1289;5469188;-67
2023/12/24 08:44:53;;;;;;;2.20;1.50;;;;;;;1.58;87.89;99034.70;125025;1319;114946;-67
2023/12/24 08:48:54;;;;;;;2.90;1.80;;;;;;;1.56;87.95;99025.25;124113;1319;115039;-68
2023/12/24 08:52:53;;;;;;;2.60;1.40;;;;;;;1.60;88.03;99027.08;123672;1319;130032;-68
2023/12/24 08:56:28;;;;;;;;;;;;;;;;;;;;;
2023/12/24 09:04:31;;;;;;;2.00;1.40;;;;;;;1.77;88.07;99019.11;126365;1299;636721;-69
2023/12/24 09:07:58;;;;;;;2.30;1.30;;;;;;;1.81;88.04;99007.70;128751;1286;128942;-66
2023/12/24 09:11:14;;;;;;;3.50;1.80;;;;;;;1.86;88.08;99005.59;128630;1294;114846;-69
2023/12/24 09:14:57;;;;;;;3.00;1.80;;;;;;;1.93;88.09;99001.48;128763;1276;114936;-69
2023/12/24 09:18:20;;;;;;;3.90;2.50;;;;;;;2.00;88.21;99002.12;128539;1272;331622;-70
2023/12/24 09:21:25;;;;;;;3.80;2.40;;;;;;;2.03;88.05;99007.12;128828;1275;114824;-69
2023/12/24 09:24:43;;;;;;;4.60;3.40;;;;;;;2.02;87.91;99005.23;128875;1275;130520;-69
2023/12/24 09:27:49;;;;;;;4.80;2.80;;;;;;;2.04;88.00;99004.11;128414;1272;114898;-70
2023/12/24 09:31:17;;;;;;;4.30;2.80;;;;;;;2.06;87.94;98999.96;128850;1274;115001;-68
2023/12/24 09:34:25;;;;;;;5.80;3.50;;;;;;;2.13;88.16;99002.55;128657;1275;114849;-70
2023/12/24 09:37:28;;;;;;;4.80;3.20;;;;;;;2.17;88.18;98989.54;128808;1272;114988;-70
2023/12/24 09:41:10;;;;;;;5.60;3.70;;;;;;;2.22;88.18;98979.30;128879;1275;114945;-70
2023/12/24 09:44:18;;;;;;;6.00;4.20;;;;;;;2.29;88.19;98980.48;128958;1276;114734;-70
2023/12/24 09:48:22;;;;;;;5.60;4.00;;;;;;;2.33;88.33;98970.11;129349;1268;114753;-69
2023/12/24 09:52:15;;;;;;;;;;;;;;;;;;;;;
2023/12/24 09:55:39;;;;;;;8.20;5.40;;;;;;;2.44;88.09;98964.25;128206;1278;114874;-69
2023/12/24 09:59:43;;;;;;;6.70;4.50;;;;;;;2.47;88.12;98962.19;127904;1283;129458;-69
2023/12/24 10:03:45;;;;;;;9.80;6.30;;;;;;;2.53;87.91;98952.59;127483;1297;114884;-70
2023/12/24 10:07:57;;;;;;;9.60;6.80;;;;;;;2.60;88.15;98945.83;126467;1303;114824;-70
2023/12/24 10:11:58;;;;;;;11.30;6.40;;;;;;;2.69;88.12;98941.25;126092;1298;114922;-70
2023/12/24 10:28:26;;;;;;;9.30;5.20;;;;;;;3.10;88.12;98921.10;128139;1280;128012;-72
2023/12/24 10:32:32;;;;;;;11.20;6.60;;;;;;;3.17;88.01;98919.02;127924;1286;114944;-70
2023/12/24 10:36:34;;;;;;;10.80;7.10;;;;;;;3.26;87.91;98916.36;123669;1287;5509758;-70
2023/12/24 10:40:36;;;;;;;8.80;6.20;;;;;;;3.39;88.19;98907.73;125913;1298;114844;-70
2023/12/24 10:52:33;;;;;;;12.00;5.60;;;;;;;3.76;87.94;98883.89;123587;1323;115271;-68
2023/12/24 11:04:40;;;;;;;;;;;;;;;;;;;;;
2023/12/24 11:13:11;;;;;;;12.70;8.10;;;;;;;4.18;87.65;98858.48;125706;1296;636563;-70
2023/12/24 11:21:25;;;;;;;11.20;7.30;;;;;;;4.32;87.64;98848.64;126918;1290;115289;-74
2023/12/24 11:25:27;;;;;;;14.30;8.00;;;;;;;4.40;87.40;98843.86;122350;1292;5504658;-73
2023/12/24 11:29:29;;;;;;;13.90;9.30;;;;;;;4.50;87.53;98839.14;125649;1304;114991;-72
2023/12/24 11:33:30;;;;;;;14.40;8.30;;;;;;;4.61;87.54;98834.89;124948;1326;114857;-73
2023/12/24 11:46:24;;;;;;;15.40;10.60;;;;;;;5.01;87.44;98814.50;127556;1287;129320;-71
2023/12/24 11:50:23;;;;;;;;;;;;;;;;;;;;;
2023/12/24 11:54:27;;;;;;;20.40;11.50;;;;;;;5.30;87.77;98801.87;122329;1300;5555964;-72
2023/12/24 11:58:29;;;;;;;16.40;10.40;;;;;;;5.41;87.69;98803.12;125107;1307;115000;-72
2023/12/24 12:06:55;;;;;;;25.60;15.70;;;;;;;5.62;87.80;98794.21;126482;1297;635108;-70
2023/12/24 12:10:58;;;;;;;23.40;14.90;;;;;;;5.73;87.77;98793.77;127883;1280;128918;-71
2023/12/24 12:14:55;;;;;;;;;;;;;;;;;;;;;
2023/12/24 12:18:57;;;;;;;25.80;15.90;;;;;;;5.98;87.90;98786.05;122236;1317;5458406;-73
2023/12/24 12:31:33;;;;;;;12.90;8.10;;;;;;;6.27;87.87;98783.25;125704;1302;638684;-71
2023/12/24 12:35:24;;;;;;;11.20;7.10;;;;;;;6.30;87.97;98788.05;127997;1283;128768;-72
2023/12/24 12:39:27;;;;;;;8.60;4.30;;;;;;;6.32;88.04;98788.66;128099;1281;114926;-70
2023/12/24 12:43:30;;;;;;;5.20;2.70;;;;;;;6.34;88.27;98782.48;123589;1287;5517063;-71
2023/12/24 12:59:49;;;;;;;;;;;;;;;;;;;;;
2023/12/24 13:03:39;;;;;;;;;;;;;;;;;;;;;
2023/12/24 13:12:07;;;;;;;4.50;2.30;;;;;;;6.71;89.10;98776.31;128761;1271;126533;-71
2023/12/24 13:15:17;;;;;;;2.70;1.70;;;;;;;6.74;88.93;98773.80;128250;1277;114917;-72
2023/12/24 13:19:00;;;;;;;3.20;2.60;;;;;;;6.77;89.14;98774.03;128376;1278;114941;-72
2023/12/24 13:22:46;;;;;;;4.10;2.40;;;;;;;6.80;89.21;98770.84;124471;1290;114932;-70
2023/12/24 13:26:04;;;;;;;;;;;;;;;;;;;;;
2023/12/24 13:29:19;;;;;;;3.70;1.90;;;;;;;6.80;88.98;98769.60;128214;1288;114845;-68
2023/12/24 13:33:06;;;;;;;4.00;2.40;;;;;;;6.78;89.03;98763.48;127716;1288;129039;-69
2023/12/24 13:37:08;;;;;;;4.60;3.10;;;;;;;6.81;89.35;98772.58;127724;1304;114842;-68
2023/12/24 13:41:11;;;;;;;3.60;2.10;;;;;;;6.83;89.34;98773.82;126692;1303;115726;-68
2023/12/24 13:45:12;;;;;;;4.10;2.50;;;;;;;6.85;89.50;98776.41;125556;1321;114920;-67
2023/12/24 13:49:13;;;;;;;2.80;1.50;;;;;;;6.86;89.60;98765.48;125297;1306;115020;-67
2023/12/24 14:01:20;;;;;;;2.60;1.50;;;;;;;6.95;90.03;98763.75;124994;1310;115002;-69
2023/12/24 14:05:13;;;;;;;;;;;;;;;;;;;;;
2023/12/24 14:09:06;;;;;;;4.00;2.10;;;;;;;7.05;90.17;98759.25;123623;1338;114910;-68
2023/12/24 14:12:59;;;;;;;;;;;;;;;;;;;;;
2023/12/24 14:16:54;;;;;;;;;;;;;;;;;;;;;
2023/12/24 14:21:13;;;;;;;3.40;1.60;;;;;;;7.24;90.46;98764.83;125688;1300;638704;-68
2023/12/24 14:25:08;;;;;;;;;;;;;;;;;;;;;
2023/12/24 14:29:12;;;;;;;3.20;1.40;;;;;;;7.34;91.01;98764.23;127388;1287;114942;-68
2023/12/24 14:33:08;;;;;;;2.90;1.70;;;;;;;7.40;90.81;98758.17;124279;1290;3208437;-67
2023/12/24 14:37:05;;;;;;;2.90;1.80;;;;;;;7.45;90.85;98751.83;126658;1310;115008;-68
2023/12/24 14:41:06;;;;;;;;;;;;;;;;;;;;;
2023/12/24 14:45:09;;;;;;;3.30;1.30;;;;;;;7.54;90.82;98734.61;124694;1309;129785;-67
2023/12/24 14:53:44;;;;;;;4.00;1.80;;;;;;;7.65;91.04;98737.83;125627;1299;637865;-69
2023/12/24 14:57:46;;;;;;;4.80;1.10;;;;;;;7.69;90.86;98747.73;128122;1279;128865;-69
2023/12/24 15:06:28;;;;;;;3.80;2.60;;;;;;;7.83;91.21;98747.00;125797;1302;640218;-69
2023/12/24 15:10:31;;;;;;;3.30;1.80;;;;;;;7.87;90.95;98748.52;126929;1305;130057;-70
2023/12/24 15:14:29;;;;;;;;;;;;;;;;;;;;;
2023/12/24 15:27:01;;;;;;;4.00;2.10;;;;;;;8.11;91.12;98726.21;126305;1290;638665;-71
2023/12/24 15:31:03;;;;;;;6.30;3.40;;;;;;;8.15;91.54;98724.36;128351;1274;128805;-69
2023/12/24 15:35:06;;;;;;;4.20;2.60;;;;;;;8.17;90.94;98724.05;127816;1300;114928;-71
2023/12/24 15:39:03;;;;;;;3.80;1.90;;;;;;;8.20;90.92;98726.16;124918;1274;5504492;-70
2023/12/24 15:47:05;;;;;;;4.80;1.60;;;;;;;8.27;90.91;98722.19;126311;1298;114907;-70
2023/12/24 15:59:41;;;;;;;2.80;1.70;;;;;;;8.39;90.90;98703.58;125978;1298;638885;-69
2023/12/24 16:03:36;;;;;;;;;;;;;;;;;;;;;
2023/12/24 16:07:40;;;;;;;2.30;1.40;;;;;;;8.43;91.08;98706.52;127274;1298;114901;-68
2023/12/24 16:11:36;;;;;;;;;;;;;;;;;;;;;
2023/12/24 16:15:38;;;;;;;2.70;1.90;;;;;;;8.48;90.61;98705.69;125211;1326;114873;-67
2023/12/24 16:19:40;;;;;;;3.90;2.00;;;;;;;8.51;90.90;98711.36;124212;1315;115088;-68
2023/12/24 16:23:21;;;;;;;0.90;0.50;;;;;;;8.54;90.91;98706.91;124403;1313;130197;-69
2023/12/24 16:31:43;;;;;;;;;;;;;;;;;;;;;
2023/12/24 16:35:33;;;;;;;5.30;2.40;;;;;;;8.60;90.64;98693.48;128823;1294;129010;-68
2023/12/24 16:39:20;;;;;;;4.80;2.20;;;;;;;8.63;90.26;98695.45;129251;1271;114951;-69
2023/12/24 16:43:27;;;;;;;4.50;2.00;;;;;;;8.61;90.19;98701.23;128169;1277;114950;-69
2023/12/24 16:47:37;;;;;;;4.20;2.10;;;;;;;8.65;90.02;98708.83;122901;1308;115098;-69
2023/12/24 16:55:57;;;;;;;3.70;2.20;;;;;;;8.70;89.98;98691.92;126202;1301;638659;-68
2023/12/24 17:00:01;;;;;;;5.70;2.80;;;;;;;8.69;89.72;98689.15;128585;1273;128619;-69
2023/12/24 17:03:57;;;;;;;6.30;2.10;;;;;;;8.70;89.97;98678.93;127348;1303;114977;-68
2023/12/24 17:07:58;;;;;;;7.40;2.80;;;;;;;8.71;89.84;98677.67;122687;1312;5499983;-67
2023/12/24 17:11:52;;;;;;;;;;;;;;;;;;;;;
2023/12/24 17:15:55;;;;;;;5.20;2.40;;;;;;;8.71;89.53;98672.64;124534;1314;115297;-70
2023/12/24 17:24:18;;;;;;;4.90;2.60;;;;;;;8.71;89.23;98668.89;126209;1309;637713;-68
2023/12/24 17:28:21;;;;;;;5.40;3.30;;;;;;;8.69;89.24;98678.67;128917;1285;127561;-70
2023/12/24 17:32:24;;;;;;;7.00;2.50;;;;;;;8.68;89.04;98685.66;128301;1280;114910;-70
2023/12/24 17:36:26;;;;;;;6.40;2.80;;;;;;;8.68;88.93;98686.42;123483;1292;5419066;-70
2023/12/24 17:40:27;;;;;;;7.20;2.60;;;;;;;8.68;88.95;98682.51;126607;1295;115006;-69
2023/12/24 17:44:09;;;;;;;4.10;2.40;;;;;;;8.68;88.90;98683.73;125620;1320;114990;-70
2023/12/24 17:48:11;;;;;;;6.30;3.20;;;;;;;8.69;88.50;98684.05;125577;1299;127994;-68
2023/12/24 17:52:01;;;;;;;6.10;2.90;;;;;;;8.69;88.76;98676.85;124667;1331;114890;-69
2023/12/24 17:55:56;;;;;;;5.90;2.70;;;;;;;8.69;88.77;98673.50;124001;1324;115472;-68
2023/12/24 17:59:59;;;;;;;5.00;2.60;;;;;;;8.68;89.07;98672.00;123513;1321;115464;-69
2023/12/24 18:03:34;;;;;;;5.10;2.30;;;;;;;8.68;88.71;98664.52;123474;1320;114890;-69
2023/12/24 18:12:06;;;;;;;3.70;2.40;;;;;;;8.71;88.91;98661.46;126202;1297;639601;-69
2023/12/24 18:24:14;;;;;;;4.50;2.30;;;;;;;8.72;88.99;98658.54;122882;1309;5457563;-68
2023/12/24 18:27:33;;;;;;;3.70;1.80;;;;;;;8.71;88.70;98636.73;125076;1308;115063;-68
2023/12/24 18:35:37;;;;;;;3.60;1.70;;;;;;;8.70;88.38;98628.61;124484;1314;114868;-67
2023/12/24 18:44:12;;;;;;;3.80;2.10;;;;;;;8.73;88.32;98615.38;125607;1311;638664;-69
2023/12/24 18:48:15;;;;;;;4.20;1.90;;;;;;;8.73;88.42;98623.20;128211;1281;129045;-69
2023/12/24 18:52:18;;;;;;;3.70;2.20;;;;;;;8.72;88.14;98627.18;127206;1307;114847;-69
2023/12/24 18:56:46;;;;;;;4.70;1.70;;;;;;;8.73;88.22;98624.27;122239;1295;5740718;-67
2023/12/24 19:00:23;;;;;;;3.00;1.70;;;;;;;8.74;88.16;98617.09;125536;1319;114938;-69
2023/12/24 19:08:41;;;;;;;4.90;2.30;;;;;;;8.78;88.02;98609.52;126069;1294;642251;-69
2023/12/24 19:20:51;;;;;;;3.00;1.90;;;;;;;8.78;87.85;98592.04;123360;1287;5523247;-68
2023/12/24 19:28:54;;;;;;;3.10;1.70;;;;;;;8.80;87.66;98578.21;125283;1322;114820;-68
2023/12/24 19:32:55;;;;;;;4.20;1.80;;;;;;;8.82;87.60;98571.50;124686;1329;129690;-68
2023/12/24 19:41:31;;;;;;;5.60;3.30;;;;;;;8.90;87.31;98560.25;125792;1299;638642;-68
2023/12/24 19:45:33;;;;;;;4.00;2.60;;;;;;;8.90;87.45;98561.69;127992;1281;129523;-68
2023/12/24 19:49:36;;;;;;;3.50;2.10;;;;;;;8.91;87.37;98554.30;127661;1286;114922;-68
2023/12/24 19:53:38;;;;;;;5.10;1.80;;;;;;;8.92;87.37;98558.55;122532;1293;5538635;-68
2023/12/24 19:57:24;;;;;;;3.80;2.20;;;;;;;8.94;87.46;98563.54;126172;1296;114973;-68
2023/12/24 20:01:27;;;;;;;3.50;1.80;;;;;;;8.94;87.58;98563.86;126428;1292;114826;-68
2023/12/24 20:21:29;;;;;;;4.10;1.60;;;;;;;8.82;88.88;98521.32;126296;1293;3078990;-68
2023/12/24 20:25:31;;;;;;;4.10;2.20;;;;;;;8.79;89.15;98520.63;128664;1276;114733;-68
2023/12/24 20:29:12;;;;;;;;;;;;;;;;;;;;;
2023/12/24 20:33:30;;;;;;;3.60;2.10;;;;;;;8.74;89.37;98514.21;126591;1295;115056;-68
2023/12/24 20:42:02;;;;;;;5.40;3.30;;;;;;;8.76;89.91;98511.79;125895;1298;637158;-69
2023/12/24 20:45:37;;;;;;;10.10;6.70;;;;;;;8.74;89.92;98508.48;127710;1301;130175;-68
2023/12/24 20:49:02;;;;;;;;;;;;;;;8.74;90.27;98506.58;127966;1284;114859;-67
2023/12/24 20:53:06;;;;;;;13.00;7.50;;;;;;;8.71;90.43;98506.45;127833;1283;114968;-68
2023/12/24 21:01:11;;;;;;;2.10;1.20;;;;;;;8.70;90.69;98507.20;125974;1299;115044;-69
2023/12/24 21:04:54;;;;;;;4.50;1.80;;;;;;;8.70;90.77;98514.87;124986;1318;114938;-69
2023/12/24 21:08:44;;;;;;;;;;;;;;;;;;;;;
2023/12/24 21:12:37;;;;;;;;;;;;;;;;;;;;;
2023/12/24 21:16:18;;;;;;;3.00;1.30;;;;;;;8.73;91.23;98516.94;123738;1317;114912;-68
2023/12/24 21:20:29;;;;;;;4.40;1.90;;;;;;;8.76;91.21;98516.77;126346;1295;638903;-69
2023/12/24 21:24:26;;;;;;;4.60;1.60;;;;;;;8.74;91.43;98517.96;129041;1273;129423;-68
2023/12/24 21:28:20;;;;;;;2.70;1.40;;;;;;;8.74;91.68;98524.55;128321;1278;115368;-68
2023/12/24 21:32:04;;;;;;;4.80;1.60;;;;;;;8.75;91.84;98517.39;127393;1286;115358;-68
2023/12/24 21:36:02;;;;;;;;;;;;;;;;;;;;;
2023/12/24 21:39:59;;;;;;;;;;;;;;;;;;;;;
2023/12/24 21:43:59;;;;;;;;;;;;;;;;;;;;;
2023/12/24 21:48:01;;;;;;;;;;;;;;;;;;;;;
2023/12/24 21:52:05;;;;;;;5.20;1.40;;;;;;;8.77;92.41;98499.42;125369;1302;114961;-68
2023/12/24 21:56:05;;;;;;;4.90;1.30;;;;;;;8.78;92.26;98514.45;124154;1329;115092;-68
2023/12/24 22:04:32;;;;;;;;;;;;;;;;;;;;;
2023/12/24 22:08:26;;;;;;;;;;;;;;;;;;;;;
2023/12/24 22:16:24;;;;;;;2.60;0.80;;;;;;;8.90;92.86;98483.73;123058;1290;5507427;-70
2023/12/24 22:20:21;;;;;;;;;;;;;;;;;;;;;
2023/12/24 22:24:29;;;;;;;1.90;1.20;;;;;;;8.95;93.23;98482.83;125629;1305;115290;-73
2023/12/24 22:32:27;;;;;;;2.70;0.70;;;;;;;9.04;93.62;98473.11;123951;1319;128541;-69
2023/12/24 22:44:38;;;;;;;1.90;1.00;;;;;;;9.23;93.92;98468.87;127978;1284;128559;-69
2023/12/24 22:48:44;;;;;;;2.20;0.90;;;;;;;9.30;94.04;98460.68;127712;1282;114953;-70
2023/12/24 22:52:41;;;;;;;1.90;0.90;;;;;;;9.38;94.22;98456.86;120908;1302;8329137;-71
2023/12/24 22:56:30;;;;;;;2.20;0.90;;;;;;;9.47;94.05;98458.36;126342;1296;114945;-69
2023/12/24 23:00:22;;;;;;;1.10;0.40;;;;;;;9.54;94.08;98462.48;125818;1302;114964;-73
2023/12/24 23:04:04;;;;;;;;;;;;;;;9.62;94.13;98452.80;125392;1307;115012;-70
2023/12/24 23:07:55;;;;;;;;;;;;;;;;;;;;;
2023/12/24 23:11:55;;;;;;;0.80;0.50;;;;;;;9.78;94.12;98442.69;123907;1319;115162;-72
2023/12/24 23:19:57;;;;;;;0.80;0.30;;;;;;;9.95;93.85;98438.58;125609;1303;639680;-71
2023/12/24 23:23:58;;;;;;;;;;;;;;;;;;;;;
2023/12/24 23:28:24;;;;;;;1.10;0.50;;;;;;;10.08;93.41;98426.83;128262;1280;114879;-70
2023/12/24 23:32:29;;;;;;;1.30;0.40;;;;;;;10.16;93.24;98423.19;125769;1286;3068338;-72
2023/12/24 23:36:24;;;;;;;;;;;;;;;;;;;;;
2023/12/24 23:43:49;;;;;;;1.70;0.60;;;;;;;10.35;92.69;98426.38;127131;1281;128632;-70
2023/12/24 23:47:15;;;;;;;0.60;0.20;;;;;;;10.42;92.52;98425.32;127149;1284;114998;-69
2023/12/24 23:50:33;;;;;;;0.80;0.40;;;;;;;10.47;92.65;98422.21;127285;1284;114891;-70
2023/12/24 23:54:02;;;;;;;0.60;0.50;;;;;;;10.52;92.51;98423.83;127164;1286;114806;-69
2023/12/24 23:57:09;;;;;;;0.70;0.40;;;;;;;10.56;92.35;98421.18;126373;1295;114961;-69
